createdAt,value
2022-09-11T00:00:38.679Z,86.50
2022-09-11T00:03:05.237Z,87.20
2022-09-11T00:05:31.871Z,87.10
2022-09-11T00:07:58.451Z,86.80
2022-09-11T00:10:25.000Z,87.50
2022-09-11T00:12:51.536Z,86.90
2022-09-11T00:15:18.138Z,86.00
2022-09-11T00:17:44.673Z,86.30
2022-09-11T00:20:11.253Z,86.30
2022-09-11T00:22:37.788Z,84.70
2022-09-11T00:25:04.451Z,84.00
2022-09-11T00:27:30.977Z,83.50
2022-09-11T00:29:57.499Z,82.60
2022-09-11T00:32:24.394Z,83.90
2022-09-11T00:34:50.980Z,84.80
2022-09-11T00:37:17.517Z,85.70
2022-09-11T00:39:44.093Z,86.20
2022-09-11T00:42:11.604Z,85.90
2022-09-11T00:44:38.135Z,85.60
2022-09-11T00:47:11.757Z,84.90
2022-09-11T00:49:44.000Z,84.80
2022-09-11T00:52:13.672Z,85.00
2022-09-11T00:54:59.908Z,84.00
2022-09-11T00:57:28.954Z,85.00
2022-09-11T00:59:58.475Z,84.60
2022-09-11T01:02:27.638Z,83.80
2022-09-11T01:04:55.221Z,83.70
2022-09-11T01:07:22.900Z,82.20
2022-09-11T01:09:51.106Z,82.10
2022-09-11T01:12:23.006Z,82.10
2022-09-11T01:14:49.564Z,82.10
2022-09-11T01:17:27.313Z,82.10
2022-09-11T01:20:01.654Z,82.10
2022-09-11T01:22:51.656Z,82.10
2022-09-11T01:25:27.873Z,82.10
2022-09-11T01:27:56.109Z,82.20
2022-09-11T01:30:24.136Z,83.70
2022-09-11T01:32:59.750Z,84.30
2022-09-11T01:35:40.555Z,85.70
2022-09-11T01:38:16.046Z,85.20
2022-09-11T01:40:50.140Z,86.20
2022-09-11T01:43:20.534Z,87.10
2022-09-11T01:45:48.125Z,87.50
2022-09-11T01:48:16.242Z,86.70
2022-09-11T01:50:45.084Z,86.70
2022-09-11T01:53:14.304Z,86.90
2022-09-11T01:55:43.563Z,86.80
2022-09-11T01:58:15.943Z,87.80
2022-09-11T02:00:44.625Z,88.30
2022-09-11T02:03:31.478Z,86.70
2022-09-11T02:05:59.755Z,86.70
2022-09-11T02:08:31.641Z,87.50
2022-09-11T02:11:03.462Z,87.90
2022-09-11T02:13:48.845Z,88.50
2022-09-11T02:16:28.693Z,89.20
2022-09-11T02:19:05.843Z,90.00
2022-09-11T02:21:33.047Z,90.00
2022-09-11T02:24:00.165Z,90.10
2022-09-11T02:26:28.975Z,90.10
2022-09-11T02:28:55.561Z,90.10
2022-09-11T02:31:22.767Z,90.10
2022-09-11T02:33:50.097Z,90.10
2022-09-11T02:36:31.892Z,90.10
2022-09-11T02:39:07.533Z,90.10
2022-09-11T02:41:43.174Z,90.10
2022-09-11T02:44:15.621Z,90.10
2022-09-11T02:46:58.866Z,90.20
2022-09-11T02:49:30.963Z,90.20
2022-09-11T02:52:03.505Z,90.10
2022-09-11T02:54:49.036Z,90.30
2022-09-11T02:57:15.522Z,90.50
2022-09-11T02:59:49.980Z,90.70
2022-09-11T03:02:18.242Z,90.80
2022-09-11T03:04:45.548Z,90.40
2022-09-11T03:07:12.076Z,90.50
2022-09-11T03:09:38.748Z,90.50
2022-09-11T03:12:05.429Z,90.70
2022-09-11T03:14:31.998Z,90.70
2022-09-11T03:16:58.628Z,90.70
2022-09-11T03:19:25.207Z,91.00
2022-09-11T03:21:51.723Z,91.30
2022-09-11T03:24:18.291Z,91.50
2022-09-11T03:26:44.958Z,91.60
2022-09-11T03:29:11.652Z,91.50
2022-09-11T03:31:39.407Z,91.60
2022-09-11T03:34:06.467Z,91.60
2022-09-11T03:36:34.335Z,91.40
2022-09-11T03:39:01.350Z,91.50
2022-09-11T03:41:27.877Z,91.70
2022-09-11T03:43:54.375Z,91.90
2022-09-11T03:46:20.941Z,91.80
2022-09-11T03:48:47.481Z,92.00
2022-09-11T03:51:14.810Z,92.00
2022-09-11T03:53:42.174Z,92.20
2022-09-11T03:56:08.854Z,92.40
2022-09-11T03:58:35.383Z,92.60
2022-09-11T04:01:02.073Z,92.80
2022-09-11T04:03:28.701Z,92.60
2022-09-11T04:05:56.969Z,92.80
2022-09-11T04:08:23.512Z,92.60
2022-09-11T04:10:56.967Z,92.70
2022-09-11T04:13:30.596Z,92.60
2022-09-11T04:16:01.019Z,92.80
2022-09-11T04:18:27.675Z,92.80
2022-09-11T04:20:54.235Z,92.80
2022-09-11T04:23:20.925Z,92.70
2022-09-11T04:25:47.680Z,92.70
2022-09-11T04:28:14.527Z,92.60
2022-09-11T04:30:42.207Z,92.50
2022-09-11T04:33:08.769Z,92.50
2022-09-11T04:35:39.440Z,92.50
2022-09-11T04:38:06.534Z,92.60
2022-09-11T04:40:34.354Z,92.70
2022-09-11T04:43:01.543Z,92.60
2022-09-11T04:45:33.207Z,92.60
2022-09-11T04:48:00.386Z,92.70
2022-09-11T04:50:28.612Z,92.60
2022-09-11T04:52:55.185Z,92.70
2022-09-11T04:55:23.161Z,92.60
2022-09-11T04:57:49.790Z,92.40
2022-09-11T05:00:16.677Z,92.60
2022-09-11T05:02:43.255Z,92.60
2022-09-11T05:05:09.838Z,92.70
2022-09-11T05:07:36.599Z,92.60
2022-09-11T05:10:03.299Z,92.60
2022-09-11T05:12:31.790Z,92.80
2022-09-11T05:14:59.047Z,92.40
2022-09-11T05:17:25.637Z,92.50
2022-09-11T05:19:52.178Z,92.50
2022-09-11T05:22:18.704Z,92.40
2022-09-11T05:24:45.243Z,92.40
2022-09-11T05:27:11.949Z,92.20
2022-09-11T05:29:39.154Z,92.20
2022-09-11T05:32:05.967Z,92.30
2022-09-11T05:34:32.526Z,92.10
2022-09-11T05:36:59.214Z,92.10
2022-09-11T05:39:25.828Z,92.20
2022-09-11T05:41:52.876Z,92.10
2022-09-11T05:44:19.652Z,92.10
2022-09-11T05:46:46.270Z,91.90
2022-09-11T05:49:12.956Z,92.00
2022-09-11T05:51:41.557Z,91.70
2022-09-11T05:54:08.241Z,91.30
2022-09-11T05:56:34.801Z,91.00
2022-09-11T05:59:02.445Z,91.00
2022-09-11T06:01:29.177Z,90.50
2022-09-11T06:03:56.579Z,90.30
2022-09-11T06:06:23.711Z,90.30
2022-09-11T06:08:51.734Z,90.30
2022-09-11T06:11:19.043Z,90.30
2022-09-11T06:13:46.453Z,88.80
2022-09-11T06:16:18.087Z,87.40
2022-09-11T06:18:49.260Z,86.20
2022-09-11T06:21:19.134Z,86.10
2022-09-11T06:23:46.108Z,85.50
2022-09-11T06:26:13.871Z,84.80
2022-09-11T06:28:40.927Z,84.40
2022-09-11T06:31:09.946Z,84.40
2022-09-11T06:33:37.629Z,84.10
2022-09-11T06:36:05.170Z,83.10
2022-09-11T06:38:32.018Z,81.90
2022-09-11T06:41:02.264Z,83.00
2022-09-11T06:43:29.249Z,83.00
2022-09-11T06:45:56.004Z,81.70
2022-09-11T06:48:22.553Z,80.70
2022-09-11T06:50:49.118Z,80.50
2022-09-11T06:53:15.789Z,78.00
2022-09-11T06:55:42.285Z,78.10
2022-09-11T06:58:08.876Z,77.90
2022-09-11T07:00:36.549Z,78.90
2022-09-11T07:03:03.967Z,81.40
2022-09-11T07:05:31.015Z,80.20
2022-09-11T07:07:57.803Z,80.40
2022-09-11T07:10:24.632Z,79.80
2022-09-11T07:12:55.673Z,79.00
2022-09-11T07:15:22.226Z,77.50
2022-09-11T07:17:48.848Z,78.90
2022-09-11T07:20:15.385Z,80.60
2022-09-11T07:22:45.551Z,79.50
2022-09-11T07:25:12.447Z,78.50
2022-09-11T07:27:38.969Z,75.10
2022-09-11T07:30:05.894Z,75.10
2022-09-11T07:32:32.432Z,75.20
2022-09-11T07:35:01.576Z,72.70
2022-09-11T07:37:28.110Z,74.60
2022-09-11T07:39:54.634Z,73.60
2022-09-11T07:42:21.152Z,75.00
2022-09-11T07:44:47.960Z,75.10
2022-09-11T07:47:14.458Z,75.20
2022-09-11T07:49:40.979Z,73.70
2022-09-11T07:52:07.490Z,73.30
2022-09-11T07:54:34.784Z,72.70
2022-09-11T07:57:01.545Z,72.80
2022-09-11T07:59:28.035Z,70.10
2022-09-11T08:01:55.770Z,66.70
2022-09-11T08:04:22.489Z,66.90
2022-09-11T08:06:49.054Z,66.50
2022-09-11T08:09:15.705Z,63.80
2022-09-11T08:11:44.685Z,57.90
2022-09-11T08:14:13.338Z,57.90
2022-09-11T08:16:40.198Z,55.00
2022-09-11T08:19:07.263Z,56.50
2022-09-11T08:21:33.919Z,58.00
2022-09-11T08:24:00.699Z,55.80
2022-09-11T08:26:28.498Z,55.10
2022-09-11T08:28:55.749Z,56.00
2022-09-11T08:31:23.378Z,55.50
2022-09-11T08:33:49.940Z,54.30
2022-09-11T08:36:16.501Z,53.80
2022-09-11T08:38:43.628Z,52.70
2022-09-11T08:41:29.128Z,54.00
2022-09-11T08:43:56.595Z,50.30
2022-09-11T08:46:24.913Z,47.90
2022-09-11T08:49:13.270Z,44.50
2022-09-11T08:51:40.343Z,40.50
2022-09-11T08:54:07.136Z,37.40
2022-09-11T08:56:36.380Z,32.10
2022-09-11T08:59:16.963Z,27.30
2022-09-11T09:01:57.681Z,23.20
2022-09-11T09:04:43.439Z,25.20
2022-09-11T09:07:30.898Z,27.00
2022-09-11T09:10:07.685Z,28.90
2022-09-11T09:12:42.284Z,32.00
2022-09-11T09:15:17.019Z,33.30
2022-09-11T09:17:48.075Z,32.70
2022-09-11T09:20:23.141Z,31.50
2022-09-11T09:22:49.806Z,34.50
2022-09-11T09:25:19.874Z,37.10
2022-09-11T09:27:48.432Z,37.00
2022-09-11T09:30:19.591Z,36.90
2022-09-11T09:32:53.466Z,37.90
2022-09-11T09:35:23.146Z,38.50
2022-09-11T09:37:49.852Z,37.20
2022-09-11T09:40:18.639Z,33.40
2022-09-11T09:42:48.552Z,31.80
2022-09-11T09:45:33.827Z,28.50
2022-09-11T09:48:01.273Z,26.70
2022-09-11T09:50:33.378Z,23.40
2022-09-11T09:53:05.006Z,20.40
2022-09-11T09:55:32.046Z,18.60
2022-09-11T09:57:58.571Z,18.60
2022-09-11T10:00:25.251Z,18.80
2022-09-11T10:02:55.016Z,15.00
2022-09-11T10:05:25.226Z,15.40
2022-09-11T10:08:15.581Z,14.50
2022-09-11T10:10:42.267Z,12.30
2022-09-11T10:13:19.886Z,13.10
2022-09-11T10:15:49.079Z,12.20
2022-09-11T10:18:22.702Z,7.50
2022-09-11T10:20:49.252Z,5.20
2022-09-11T10:23:24.127Z,3.50
2022-09-11T10:25:51.858Z,1.00
2022-09-11T10:28:24.150Z,1.00
2022-09-11T10:31:02.352Z,1.00
2022-09-11T10:33:30.590Z,1.00
2022-09-11T10:35:58.382Z,1.00
2022-09-11T10:38:29.734Z,1.00
2022-09-11T10:41:19.503Z,1.00
2022-09-11T10:43:48.962Z,1.00
2022-09-11T10:46:24.816Z,1.00
2022-09-11T10:48:54.831Z,1.00
2022-09-11T10:51:22.646Z,1.00
2022-09-11T10:53:58.115Z,1.00
2022-09-11T10:56:26.074Z,1.00
2022-09-11T10:58:55.171Z,1.00
2022-09-11T11:01:21.979Z,1.00
2022-09-11T11:03:48.905Z,1.00
2022-09-11T11:06:22.412Z,1.00
2022-09-11T11:08:58.688Z,1.00
2022-09-11T11:11:40.472Z,1.00
2022-09-11T11:14:21.159Z,1.00
2022-09-11T11:16:59.613Z,1.00
2022-09-11T11:19:26.123Z,1.00
2022-09-11T11:28:23.338Z,1.00
2022-09-11T11:31:08.231Z,1.00
2022-09-11T11:33:43.640Z,1.00
2022-09-11T11:36:10.158Z,1.00
2022-09-11T11:38:43.684Z,1.00
2022-09-11T11:41:15.027Z,1.00
2022-09-11T11:43:43.434Z,1.00
2022-09-11T11:46:15.422Z,1.00
2022-09-11T11:48:42.140Z,1.00
2022-09-11T11:51:11.767Z,1.00
2022-09-11T11:53:51.159Z,1.00
2022-09-11T11:56:29.103Z,1.00
2022-09-11T11:58:57.575Z,1.00
2022-09-11T12:01:44.684Z,1.00
2022-09-11T12:04:24.423Z,1.00
2022-09-11T12:06:51.083Z,1.00
2022-09-11T12:09:18.417Z,1.00
2022-09-11T12:11:50.862Z,1.00
2022-09-11T12:14:28.172Z,1.00
2022-09-11T12:16:57.858Z,1.00
2022-09-11T12:19:25.578Z,1.00
2022-09-11T12:21:52.066Z,1.00
2022-09-11T12:24:20.337Z,1.00
2022-09-11T12:26:46.943Z,1.00
2022-09-11T12:29:14.422Z,1.00
2022-09-11T12:31:49.775Z,1.00
2022-09-11T12:34:17.433Z,1.00
2022-09-11T12:36:47.047Z,1.00
2022-09-11T12:39:46.106Z,1.00
2022-09-11T12:42:25.436Z,1.00
2022-09-11T12:44:52.189Z,1.00
2022-09-11T12:47:18.689Z,1.00
2022-09-11T12:49:52.061Z,1.00
2022-09-11T12:52:23.645Z,1.00
2022-09-11T12:54:50.725Z,1.00
2022-09-11T12:57:19.232Z,1.00
2022-09-11T12:59:46.751Z,1.00
2022-09-11T13:02:35.029Z,1.00
2022-09-11T13:05:02.740Z,1.00
2022-09-11T13:07:32.175Z,1.00
2022-09-11T13:10:02.895Z,1.00
2022-09-11T13:12:29.664Z,1.00
2022-09-11T13:14:56.931Z,1.00
2022-09-11T13:17:30.086Z,1.00
2022-09-11T13:20:09.457Z,1.00
2022-09-11T13:22:36.502Z,1.00
2022-09-11T13:25:10.685Z,1.00
2022-09-11T13:27:40.322Z,1.00
2022-09-11T13:30:07.829Z,1.00
2022-09-11T13:32:35.232Z,1.00
2022-09-11T13:35:05.663Z,1.00
2022-09-11T13:37:36.970Z,1.00
2022-09-11T13:40:04.914Z,1.00
2022-09-11T13:42:32.679Z,1.00
2022-09-11T13:45:00.822Z,1.00
2022-09-11T13:47:29.129Z,1.00
2022-09-11T13:49:57.885Z,1.00
2022-09-11T13:52:25.614Z,1.00
2022-09-11T13:54:53.734Z,1.00
2022-09-11T13:57:21.778Z,1.00
2022-09-11T13:59:49.260Z,1.00
2022-09-11T14:02:19.227Z,1.00
2022-09-11T14:04:47.256Z,1.00
2022-09-11T14:07:19.294Z,1.00
2022-09-11T14:09:58.327Z,1.00
2022-09-11T14:12:25.179Z,1.00
2022-09-11T14:14:54.163Z,1.00
2022-09-11T14:17:21.081Z,1.00
2022-09-11T14:19:48.081Z,1.00
2022-09-11T14:22:15.885Z,1.00
2022-09-11T14:24:50.918Z,1.00
2022-09-11T14:27:37.299Z,1.00
2022-09-11T14:30:22.868Z,1.00
2022-09-11T14:33:05.596Z,1.00
2022-09-11T14:35:33.246Z,1.00
2022-09-11T14:37:59.796Z,1.00
2022-09-11T14:40:26.876Z,1.00
2022-09-11T14:42:53.566Z,1.00
2022-09-11T14:45:21.858Z,1.00
2022-09-11T14:47:48.380Z,1.00
2022-09-11T14:50:14.901Z,1.00
2022-09-11T14:52:44.873Z,1.00
2022-09-11T14:55:15.828Z,1.00
2022-09-11T14:57:42.500Z,1.00
2022-09-11T15:00:10.516Z,1.00
2022-09-11T15:02:37.056Z,1.00
2022-09-11T15:05:03.754Z,1.00
2022-09-11T15:07:30.264Z,1.00
2022-09-11T15:09:56.867Z,1.00
2022-09-11T15:12:23.423Z,1.00
2022-09-11T15:14:57.296Z,1.00
2022-09-11T15:17:25.367Z,1.00
2022-09-11T15:19:52.651Z,1.00
2022-09-11T15:22:19.459Z,1.00
2022-09-11T15:24:47.028Z,1.00
2022-09-11T15:27:13.845Z,1.00
2022-09-11T15:29:42.776Z,1.00
2022-09-11T15:32:10.261Z,1.00
2022-09-11T15:34:38.555Z,1.00
2022-09-11T15:37:05.387Z,1.00
2022-09-11T15:39:31.981Z,1.00
2022-09-11T15:41:58.884Z,1.00
2022-09-11T15:44:27.421Z,1.00
2022-09-11T15:46:55.182Z,1.00
2022-09-11T15:49:22.450Z,1.00
2022-09-11T15:51:49.494Z,1.00
2022-09-11T15:54:16.244Z,1.00
2022-09-11T15:56:43.213Z,1.00
2022-09-11T15:59:10.887Z,1.00
2022-09-11T16:01:37.694Z,1.00
2022-09-11T16:04:05.979Z,1.00
2022-09-11T16:06:34.538Z,1.00
2022-09-11T16:09:05.367Z,1.00
2022-09-11T16:11:32.727Z,1.00
2022-09-11T16:13:59.653Z,1.00
2022-09-11T16:16:26.852Z,1.00
2022-09-11T16:18:53.731Z,1.00
2022-09-11T16:21:20.997Z,1.00
2022-09-11T16:23:51.251Z,1.70
2022-09-11T16:26:23.772Z,1.70
2022-09-11T16:28:50.509Z,3.90
2022-09-11T16:31:17.062Z,3.80
2022-09-11T16:33:44.264Z,6.30
2022-09-11T16:36:16.999Z,6.30
2022-09-11T16:38:44.281Z,5.10
2022-09-11T16:41:12.571Z,8.70
2022-09-11T16:43:40.293Z,8.50
2022-09-11T16:46:07.266Z,6.50
2022-09-11T16:48:34.149Z,11.10
2022-09-11T16:51:00.744Z,10.60
2022-09-11T16:53:28.765Z,11.10
2022-09-11T16:55:56.102Z,13.30
2022-09-11T16:58:22.836Z,14.30
2022-09-11T17:00:49.546Z,13.80
2022-09-11T17:03:17.008Z,16.40
2022-09-11T17:05:47.111Z,18.00
2022-09-11T17:08:13.902Z,19.30
2022-09-11T17:10:44.474Z,19.90
2022-09-11T17:13:11.715Z,21.50
2022-09-11T17:15:38.705Z,22.90
2022-09-11T17:18:05.279Z,22.80
2022-09-11T17:20:31.866Z,23.60
2022-09-11T17:22:58.444Z,24.60
2022-09-11T17:25:25.840Z,26.70
2022-09-11T17:27:52.458Z,26.90
2022-09-11T17:30:19.532Z,28.70
2022-09-11T17:32:46.907Z,29.50
2022-09-11T17:35:14.369Z,31.70
2022-09-11T17:37:40.918Z,34.10
2022-09-11T17:40:07.896Z,34.80
2022-09-11T17:42:34.639Z,36.90
2022-09-11T17:45:01.974Z,37.00
2022-09-11T17:47:32.777Z,39.90
2022-09-11T17:50:01.447Z,41.20
2022-09-11T17:52:28.741Z,42.20
2022-09-11T17:54:56.629Z,43.50
2022-09-11T17:57:25.485Z,45.00
2022-09-11T17:59:52.609Z,47.50
2022-09-11T18:02:19.734Z,47.40
2022-09-11T18:04:49.650Z,49.40
2022-09-11T18:07:16.792Z,51.10
2022-09-11T18:09:43.404Z,52.50
2022-09-11T18:12:10.086Z,52.60
2022-09-11T18:14:40.357Z,54.00
2022-09-11T18:17:06.871Z,56.40
2022-09-11T18:19:33.417Z,56.30
2022-09-11T18:21:59.982Z,57.60
2022-09-11T18:24:29.879Z,57.60
2022-09-11T18:27:00.756Z,57.50
2022-09-11T18:29:29.971Z,58.00
2022-09-11T18:31:57.114Z,58.30
2022-09-11T18:34:24.790Z,61.10
2022-09-11T18:36:51.337Z,61.40
2022-09-11T18:39:18.577Z,61.30
2022-09-11T18:41:45.663Z,61.00
2022-09-11T18:44:19.315Z,60.70
2022-09-11T18:46:46.383Z,60.50
2022-09-11T18:49:13.539Z,59.70
2022-09-11T18:51:40.170Z,60.50
2022-09-11T18:54:14.283Z,60.30
2022-09-11T18:56:41.179Z,61.50
2022-09-11T18:59:08.276Z,63.00
2022-09-11T19:01:35.157Z,64.00
2022-09-11T19:04:05.472Z,64.80
2022-09-11T19:06:32.081Z,64.90
2022-09-11T19:09:00.272Z,66.20
2022-09-11T19:11:28.135Z,66.10
2022-09-11T19:14:01.944Z,66.10
2022-09-11T19:16:28.494Z,66.10
2022-09-11T19:18:55.307Z,67.30
2022-09-11T19:21:23.133Z,67.90
2022-09-11T19:23:57.709Z,68.00
2022-09-11T19:26:27.215Z,68.00
2022-09-11T19:28:55.771Z,68.50
2022-09-11T19:31:27.609Z,69.40
2022-09-11T19:33:54.792Z,69.20
2022-09-11T19:36:22.627Z,69.30
2022-09-11T19:38:49.920Z,69.60
2022-09-11T19:41:18.091Z,69.60
2022-09-11T19:43:45.189Z,69.30
2022-09-11T19:46:19.417Z,70.30
2022-09-11T19:48:46.448Z,70.80
2022-09-11T19:51:14.363Z,70.00
2022-09-11T19:53:41.680Z,70.30
2022-09-11T19:56:09.508Z,70.70
2022-09-11T19:58:36.380Z,71.50
2022-09-11T20:01:04.225Z,72.30
2022-09-11T20:03:31.618Z,73.30
2022-09-11T20:05:58.188Z,74.10
2022-09-11T20:08:24.763Z,74.10
2022-09-11T20:10:51.353Z,74.00
2022-09-11T20:13:17.896Z,74.00
2022-09-11T20:15:45.486Z,73.90
2022-09-11T20:18:12.010Z,73.90
2022-09-11T20:20:41.208Z,73.90
2022-09-11T20:23:12.056Z,73.80
2022-09-11T20:25:38.611Z,73.80
2022-09-11T20:28:05.264Z,73.70
2022-09-11T20:30:32.614Z,73.70
2022-09-11T20:33:00.502Z,73.70
2022-09-11T20:35:27.335Z,73.70
2022-09-11T20:37:53.930Z,75.30
2022-09-11T20:40:20.672Z,76.40
2022-09-11T20:42:47.264Z,76.50
2022-09-11T20:45:13.848Z,76.50
2022-09-11T20:47:40.508Z,75.70
2022-09-11T20:50:07.463Z,75.30
2022-09-11T20:52:39.207Z,75.00
2022-09-11T20:55:06.697Z,74.80
2022-09-11T20:57:33.250Z,76.50
2022-09-11T21:00:00.755Z,76.60
2022-09-11T21:02:27.492Z,77.60
2022-09-11T21:04:54.055Z,77.80
2022-09-11T21:07:20.645Z,77.80
2022-09-11T21:09:47.783Z,78.20
2022-09-11T21:12:14.337Z,79.20
2022-09-11T21:14:41.694Z,79.30
2022-09-11T21:17:08.240Z,79.50
2022-09-11T21:19:34.765Z,79.50
2022-09-11T21:22:01.294Z,80.40
2022-09-11T21:24:27.812Z,80.50
2022-09-11T21:26:54.335Z,80.80
2022-09-11T21:29:20.914Z,81.70
2022-09-11T21:31:47.526Z,81.70
2022-09-11T21:34:14.143Z,81.60
2022-09-11T21:36:40.969Z,81.70
2022-09-11T21:39:07.515Z,81.70
2022-09-11T21:41:34.070Z,81.60
2022-09-11T21:44:00.721Z,81.60
2022-09-11T21:46:27.371Z,81.60
2022-09-11T21:48:53.943Z,81.60
2022-09-11T21:51:20.662Z,81.60
2022-09-11T21:53:48.110Z,81.60
2022-09-11T21:56:24.954Z,81.50
2022-09-11T21:58:52.016Z,82.60
2022-09-11T22:01:19.908Z,83.50
2022-09-11T22:03:46.937Z,84.20
2022-09-11T22:06:13.709Z,84.50
2022-09-11T22:08:43.037Z,85.00
2022-09-11T22:11:10.212Z,84.90
2022-09-11T22:13:37.275Z,85.10
2022-09-11T22:16:05.630Z,85.30
2022-09-11T22:18:32.349Z,85.30
2022-09-11T22:21:01.156Z,84.80
2022-09-11T22:23:28.695Z,83.90
2022-09-11T22:26:00.148Z,83.30
2022-09-11T22:28:26.931Z,82.80
2022-09-11T22:30:53.567Z,82.80
2022-09-11T22:33:20.081Z,82.70
2022-09-11T22:35:49.365Z,82.10
2022-09-11T22:38:16.377Z,81.50
2022-09-11T22:40:42.910Z,81.50
2022-09-11T22:43:09.612Z,80.70
2022-09-11T22:45:36.152Z,81.40
2022-09-11T22:48:02.833Z,81.40
2022-09-11T22:50:29.436Z,82.00
2022-09-11T22:52:55.937Z,81.80
2022-09-11T22:55:22.459Z,81.90
2022-09-11T22:57:49.042Z,81.30
2022-09-11T23:00:15.761Z,81.30
2022-09-11T23:02:42.466Z,81.30
2022-09-11T23:05:27.877Z,81.20
2022-09-11T23:07:54.709Z,81.30
2022-09-11T23:10:23.356Z,79.50
2022-09-11T23:12:52.966Z,81.00
2022-09-11T23:15:19.497Z,81.10
2022-09-11T23:17:46.051Z,83.40
2022-09-11T23:20:12.617Z,82.90
2022-09-11T23:22:39.175Z,82.20
2022-09-11T23:25:06.285Z,81.20
2022-09-11T23:27:33.176Z,81.10
2022-09-11T23:29:59.711Z,81.00
2022-09-11T23:32:26.293Z,81.00
2022-09-11T23:34:52.794Z,81.00
2022-09-11T23:37:19.352Z,81.00
2022-09-11T23:39:46.635Z,82.00
2022-09-11T23:42:13.256Z,82.70
2022-09-11T23:44:39.778Z,83.20
2022-09-11T23:47:06.296Z,83.00
2022-09-11T23:49:36.206Z,82.80
2022-09-11T23:52:04.193Z,82.90
2022-09-11T23:54:30.706Z,82.70
2022-09-11T23:56:57.505Z,83.00
2022-09-11T23:59:24.021Z,83.40
